LOWW Airport Information

Runway Information
Runway 11 Length 11483 ft width 148 ft
Elevation 575 ft Threshold 0 ft Heading 116
Runway 29 Length 11483 ft Width 148 ft
Elevation 600 ft Threshold 0 ft Heading 296
Runway 16 Length 11811 ft width 148 ft
Elevation 597 ft Threshold 2953 ft Heading 164
Runway 34 Length 11811 ft Width 148 ft
Elevation 586 ft Threshold 0 ft Heading 344
Airport Frequencies
Type APP Name WIEN RADAR Frequency 128.2 MHZ
Type ATIS Name ATIS Frequency 121.725 MHZ
Type CLD Name WIEN CLNC Frequency 122.125 MHZ
Type DIR Name DIRECTOR Frequency 119.8 MHZ
Type GND Name WIEN GND Frequency 121.6 MHZ
Type INFO Name INFO Frequency 118.525 MHZ
Type RMP Name VIENNA ICE Frequency 131.625 MHZ
Type TWR Name WIEN TWR Frequency 119.4 MHZ
Airport Navaids
Type NDB Name Bruck Frequency 408 KHZ
Type VOR-DME Name Fischamend Frequency 110400 KHZ
Type VOR-DME Name Sollenau Frequency 115500 KHZ
Type NDB Name Steinhof Frequency 293 KHZ
Type VOR-DME Name Wagram Frequency 112200 KHZ
Type NDB Name Schwechat Frequency 303 KHZ
Airport Weather Information & NOTAM
ADDS - METARS form results

(2358 UTC 15 April 2021)
Data provider http://aviationweather.gov/metar/data/
 
METAR text: LOWW 152350Z 31012KT 9999 SCT028 03/M02 Q1022 NOSIG
Conditions at: LOWW (VIENNA/SCHWECHAT, AT) observed 2350 UTC 15 April 2021
Temperature: 3.0°C (37°F)
Dewpoint: -2.0°C (28°F) [RH = 70%]
Pressure (altimeter): 30.18 inches Hg (1022.0 mb)
Winds: from the NW (310 degrees) at 14 MPH (12 knots; 6.2 m/s)
Visibility: 6 or more miles (10+ km)
Ceiling: at least 12,000 feet AGL
Clouds: scattered clouds at 2800 feet AGL
Weather: no significant weather observed at this time

METAR text: LOWW 152320Z 31012KT 9999 SCT025 03/M02 Q1022 NOSIG
Conditions at: LOWW (VIENNA/SCHWECHAT, AT) observed 2320 UTC 15 April 2021
Temperature: 3.0°C (37°F)
Dewpoint: -2.0°C (28°F) [RH = 70%]
Pressure (altimeter): 30.18 inches Hg (1022.0 mb)
Winds: from the NW (310 degrees) at 14 MPH (12 knots; 6.2 m/s)
Visibility: 6 or more miles (10+ km)
Ceiling: at least 12,000 feet AGL
Clouds: scattered clouds at 2500 feet AGL
Weather: no significant weather observed at this time

Forecast for: LOWW (VIENNA/SCHWECHAT, AT)
Text: TAF LOWW 152315Z 1600/1706 32012KT 9999 BKN045 TX09/1615Z TN03/1602Z
Forecast period: 0000 UTC 16 April 2021 to 0600 UTC 17 April 2021
Forecast type: FROM: standard forecast or significant change
Winds: from the NW (320 degrees) at 14 MPH (12 knots; 6.2 m/s)
Visibility: 6 or more miles (10+ km)
Ceiling: 4500 feet AGL
Clouds: broken clouds at 4500 feet AGL
Weather: no significant weather forecast for this period